In Rescue
 
Open Full Screen Window  High Contrast Mode
July 23, 2019 1:50 AM EDT
Weather Information
Wind Direction
  ---
Wind Speed
  00 kt (0 mph)
Wind Gust
  00 kt (0 mph)
Altimeter
30.06 in
Visibility
10 SM
Temperature
15° C
59° F
Dewpoint
12° C
54° F
Humidity
82%
Sky Condition
Clear
VFR

METAR KOEB 230550Z AUTO 00000KT 10SM CLR 15/12 A3006 RMK AO2 T01470117 10222 20143 402360143

FAA Disclaimer: The data displayed is for advisory purposes only and is not to be used for flight planning or operations.